Time,TemperatureF,DewpointF,PressureIn,WindDirection,WindDirectionDegrees,WindSpeedMPH,WindSpeedGustMPH,Humidity,HourlyPrecipIn,Conditions,Clouds,dailyrainin,SoftwareType,DateUTC
2013-04-10 00:09:00,-999.0,-99.9,30.09,North,-999,-999.0,-999.0,-999,-99.99,,,0.00,weatherlink.com 1.10,2013-04-10 04:09:00,
2013-04-10 00:24:00,-999.0,-99.9,30.09,North,-999,-999.0,-999.0,-999,-99.99,,,0.00,weatherlink.com 1.10,2013-04-10 04:24:00,
2013-04-10 00:39:00,-999.0,-99.9,30.10,North,-999,-999.0,-999.0,-999,-99.99,,,0.00,weatherlink.com 1.10,2013-04-10 04:39:00,
2013-04-10 00:55:00,-999.0,-99.9,30.10,North,-999,-999.0,-999.0,-999,-99.99,,,0.00,weatherlink.com 1.10,2013-04-10 04:55:00,
2013-04-10 01:10:00,-999.0,-99.9,30.10,North,-999,-999.0,-999.0,-999,-99.99,,,0.00,weatherlink.com 1.10,2013-04-10 05:10:00,
2013-04-10 01:25:00,-999.0,-99.9,30.10,North,-999,-999.0,-999.0,-999,-99.99,,,0.00,weatherlink.com 1.10,2013-04-10 05:25:00,
2013-04-10 01:40:00,-999.0,-99.9,30.10,North,-999,-999.0,-999.0,-999,-99.99,,,0.00,weatherlink.com 1.10,2013-04-10 05:40:00,
2013-04-10 01:55:00,-999.0,-99.9,30.09,North,-999,-999.0,-999.0,-999,-99.99,,,0.00,weatherlink.com 1.10,2013-04-10 05:55:00,
2013-04-10 02:10:00,-999.0,-99.9,30.09,North,-999,-999.0,-999.0,-999,-99.99,,,0.00,weatherlink.com 1.10,2013-04-10 06:10:00,
2013-04-10 02:25:00,-999.0,-99.9,30.08,North,-999,-999.0,-999.0,-999,-99.99,,,0.00,weatherlink.com 1.10,2013-04-10 06:25:00,
2013-04-10 02:40:00,-999.0,-99.9,30.08,North,-999,-999.0,-999.0,-999,-99.99,,,0.00,weatherlink.com 1.10,2013-04-10 06:40:00,
2013-04-10 02:55:00,-999.0,-99.9,30.07,North,-999,-999.0,-999.0,-999,-99.99,,,0.00,weatherlink.com 1.10,2013-04-10 06:55:00,
2013-04-10 03:10:00,-999.0,-99.9,30.08,North,-999,-999.0,-999.0,-999,-99.99,,,0.00,weatherlink.com 1.10,2013-04-10 07:10:00,
2013-04-10 03:25:00,-999.0,-99.9,30.09,North,-999,-999.0,-999.0,-999,-99.99,,,0.00,weatherlink.com 1.10,2013-04-10 07:25:00,
2013-04-10 03:40:00,-999.0,-99.9,30.09,North,-999,-999.0,-999.0,-999,-99.99,,,0.00,weatherlink.com 1.10,2013-04-10 07:40:00,
2013-04-10 03:55:00,-999.0,-99.9,30.11,North,-999,-999.0,-999.0,-999,-99.99,,,0.00,weatherlink.com 1.10,2013-04-10 07:55:00,
2013-04-10 04:10:00,-999.0,-99.9,30.12,North,-999,-999.0,-999.0,-999,-99.99,,,0.00,weatherlink.com 1.10,2013-04-10 08:10:00,
2013-04-10 04:26:00,-999.0,-99.9,30.12,North,-999,-999.0,-999.0,-999,-99.99,,,0.00,weatherlink.com 1.10,2013-04-10 08:26:00,
2013-04-10 04:41:00,-999.0,-99.9,30.13,North,-999,-999.0,-999.0,-999,-99.99,,,0.00,weatherlink.com 1.10,2013-04-10 08:41:00,
2013-04-10 04:56:00,-999.0,-99.9,30.13,North,-999,-999.0,-999.0,-999,-99.99,,,0.00,weatherlink.com 1.10,2013-04-10 08:56:00,
2013-04-10 05:41:00,-999.0,-99.9,30.11,North,-999,-999.0,-999.0,-999,-99.99,,,0.00,weatherlink.com 1.10,2013-04-10 09:41:00,
2013-04-10 05:56:00,-999.0,-99.9,30.11,North,-999,-999.0,-999.0,-999,-99.99,,,0.00,weatherlink.com 1.10,2013-04-10 09:56:00,
2013-04-10 06:11:00,-999.0,-99.9,30.10,North,-999,-999.0,-999.0,-999,-99.99,,,0.00,weatherlink.com 1.10,2013-04-10 10:11:00,
2013-04-10 06:26:00,-999.0,-99.9,30.11,North,-999,-999.0,-999.0,-999,-99.99,,,0.00,weatherlink.com 1.10,2013-04-10 10:26:00,
2013-04-10 06:41:00,-999.0,-99.9,30.13,North,-999,-999.0,-999.0,-999,-99.99,,,0.00,weatherlink.com 1.10,2013-04-10 10:41:00,
2013-04-10 06:56:00,-999.0,-99.9,30.13,North,-999,-999.0,-999.0,-999,-99.99,,,0.00,weatherlink.com 1.10,2013-04-10 10:56:00,
2013-04-10 07:11:00,-999.0,-99.9,30.11,North,-999,-999.0,-999.0,-999,-99.99,,,0.00,weatherlink.com 1.10,2013-04-10 11:11:00,
2013-04-10 07:26:00,-999.0,-99.9,30.11,North,-999,-999.0,-999.0,-999,-99.99,,,0.00,weatherlink.com 1.10,2013-04-10 11:26:00,
2013-04-10 07:42:00,-999.0,-99.9,30.11,North,-999,-999.0,-999.0,-999,-99.99,,,0.00,weatherlink.com 1.10,2013-04-10 11:42:00,
2013-04-10 07:57:00,-999.0,-99.9,30.10,North,-999,-999.0,-999.0,-999,-99.99,,,0.00,weatherlink.com 1.10,2013-04-10 11:57:00,
2013-04-10 08:12:00,-999.0,-99.9,30.11,North,-999,-999.0,-999.0,-999,-99.99,,,0.00,weatherlink.com 1.10,2013-04-10 12:12:00,
2013-04-10 08:27:00,-999.0,-99.9,30.11,North,-999,-999.0,-999.0,-999,-99.99,,,0.00,weatherlink.com 1.10,2013-04-10 12:27:00,
2013-04-10 08:42:00,-999.0,-99.9,30.10,North,-999,-999.0,-999.0,-999,-99.99,,,0.00,weatherlink.com 1.10,2013-04-10 12:42:00,
2013-04-10 08:57:00,-999.0,-99.9,30.11,North,-999,-999.0,-999.0,-999,-99.99,,,0.00,weatherlink.com 1.10,2013-04-10 12:57:00,
2013-04-10 09:12:00,-999.0,-99.9,30.12,North,-999,-999.0,-999.0,-999,-99.99,,,0.00,weatherlink.com 1.10,2013-04-10 13:12:00,
2013-04-10 09:27:00,-999.0,-99.9,30.13,North,-999,-999.0,-999.0,-999,-99.99,,,0.00,weatherlink.com 1.10,2013-04-10 13:27:00,
2013-04-10 09:42:00,33.5,29.0,30.13,ENE,61,5.0,-999.0,84,-99.99,,,0.00,weatherlink.com 1.10,2013-04-10 13:42:00,
2013-04-10 09:57:00,33.8,29.0,30.12,ENE,69,5.0,-999.0,83,-99.99,,,0.00,weatherlink.com 1.10,2013-04-10 13:57:00,
2013-04-10 10:12:00,34.3,29.0,30.13,NE,52,1.0,-999.0,82,-99.99,,,0.00,weatherlink.com 1.10,2013-04-10 14:12:00,
2013-04-10 10:27:00,34.6,30.0,30.14,ENE,67,6.0,-999.0,82,-99.99,,,0.00,weatherlink.com 1.10,2013-04-10 14:27:00,
2013-04-10 10:42:00,35.0,29.0,30.13,NE,56,7.0,-999.0,80,-99.99,,,0.00,weatherlink.com 1.10,2013-04-10 14:42:00,
2013-04-10 10:57:00,35.1,30.0,30.13,East,85,4.0,-999.0,81,-99.99,,,0.00,weatherlink.com 1.10,2013-04-10 14:57:00,
2013-04-10 11:12:00,35.1,30.0,30.12,ENE,78,0.0,-999.0,80,-99.99,,,0.00,weatherlink.com 1.10,2013-04-10 15:12:00,
2013-04-10 11:27:00,35.7,30.0,30.11,ENE,72,3.0,-999.0,79,-99.99,,,0.00,weatherlink.com 1.10,2013-04-10 15:27:00,
2013-04-10 11:42:00,35.7,30.0,30.11,ENE,60,6.0,-999.0,80,-99.99,,,0.00,weatherlink.com 1.10,2013-04-10 15:42:00,
2013-04-10 11:57:00,36.0,30.0,30.10,ESE,104,6.0,-999.0,80,-99.99,,,0.00,weatherlink.com 1.10,2013-04-10 15:57:00,
2013-04-10 12:12:00,35.7,30.0,30.12,ESE,117,2.0,-999.0,80,-99.99,,,0.00,weatherlink.com 1.10,2013-04-10 16:12:00,
2013-04-10 12:27:00,36.5,31.0,30.12,East,101,5.0,-999.0,79,-99.99,,,0.00,weatherlink.com 1.10,2013-04-10 16:27:00,
2013-04-10 12:42:00,37.7,31.0,30.14,ENE,76,3.0,-999.0,78,-99.99,,,0.00,weatherlink.com 1.10,2013-04-10 16:42:00,
2013-04-10 12:57:00,38.3,31.0,30.13,NE,50,0.0,-999.0,74,-99.99,,,0.00,weatherlink.com 1.10,2013-04-10 16:57:00,
2013-04-10 13:12:00,38.7,31.0,30.14,East,91,4.0,-999.0,74,-99.99,,,0.00,weatherlink.com 1.10,2013-04-10 17:12:00,
2013-04-10 13:27:00,40.1,32.0,30.13,East,86,5.0,-999.0,72,-99.99,,,0.00,weatherlink.com 1.10,2013-04-10 17:27:00,
2013-04-10 13:42:00,38.8,31.0,30.12,SE,126,4.0,-999.0,74,-99.99,,,0.00,weatherlink.com 1.10,2013-04-10 17:42:00,
2013-04-10 13:57:00,37.4,31.0,30.11,SE,134,7.0,-999.0,79,-99.99,,,0.00,weatherlink.com 1.10,2013-04-10 17:57:00,
2013-04-10 14:13:00,38.0,31.0,30.10,SE,137,2.0,-999.0,77,-99.99,,,0.00,weatherlink.com 1.10,2013-04-10 18:13:00,
2013-04-10 14:28:00,38.6,31.0,30.10,SE,126,7.0,-999.0,74,-99.99,,,0.00,weatherlink.com 1.10,2013-04-10 18:28:00,
2013-04-10 14:43:00,38.7,30.0,30.11,SE,133,4.0,-999.0,72,-99.99,,,0.00,weatherlink.com 1.10,2013-04-10 18:43:00,
2013-04-10 14:58:00,37.9,30.0,30.11,SE,136,6.0,-999.0,72,-99.99,,,0.00,weatherlink.com 1.10,2013-04-10 18:58:00,
2013-04-10 15:13:00,37.5,30.0,30.12,SE,137,4.0,-999.0,73,-99.99,,,0.00,weatherlink.com 1.10,2013-04-10 19:13:00,
2013-04-10 15:28:00,38.2,32.0,30.12,SE,137,0.0,-999.0,78,-99.99,,,0.00,weatherlink.com 1.10,2013-04-10 19:28:00,
2013-04-10 15:43:00,38.8,33.0,30.12,SE,137,3.0,-999.0,78,-99.99,,,0.00,weatherlink.com 1.10,2013-04-10 19:43:00,
2013-04-10 15:58:00,38.6,32.0,30.12,SE,137,3.0,-999.0,78,-99.99,,,0.00,weatherlink.com 1.10,2013-04-10 19:58:00,
2013-04-10 16:13:00,38.7,32.0,30.11,SE,137,2.0,-999.0,77,-99.99,,,0.00,weatherlink.com 1.10,2013-04-10 20:13:00,
2013-04-10 16:28:00,38.3,32.0,30.12,SE,137,1.0,-999.0,79,-99.99,,,0.00,weatherlink.com 1.10,2013-04-10 20:28:00,
2013-04-10 16:43:00,37.7,31.0,30.12,SE,137,4.0,-999.0,76,-99.99,,,0.00,weatherlink.com 1.10,2013-04-10 20:43:00,
2013-04-10 16:58:00,38.3,30.0,30.09,SE,137,0.0,-999.0,73,-99.99,,,0.00,weatherlink.com 1.10,2013-04-10 20:58:00,
2013-04-10 17:13:00,38.8,30.0,30.07,SE,134,5.0,-999.0,72,-99.99,,,0.00,weatherlink.com 1.10,2013-04-10 21:13:00,
2013-04-10 17:28:00,38.5,30.0,30.08,SE,129,3.0,-999.0,71,-99.99,,,0.00,weatherlink.com 1.10,2013-04-10 21:28:00,
2013-04-10 17:43:00,39.4,30.0,30.06,SE,129,0.0,-999.0,70,-99.99,,,0.00,weatherlink.com 1.10,2013-04-10 21:43:00,
2013-04-10 17:58:00,41.3,30.0,30.06,East,96,2.0,-999.0,65,-99.99,,,0.00,weatherlink.com 1.10,2013-04-10 21:58:00,
2013-04-10 18:13:00,42.5,28.0,30.06,NE,53,5.0,-999.0,58,-99.99,,,0.00,weatherlink.com 1.10,2013-04-10 22:13:00,
2013-04-10 18:28:00,40.5,27.0,30.07,NE,41,2.0,-999.0,60,-99.99,,,0.00,weatherlink.com 1.10,2013-04-10 22:28:00,
2013-04-10 18:43:00,40.5,26.0,30.09,NE,53,3.0,-999.0,57,-99.99,,,0.00,weatherlink.com 1.10,2013-04-10 22:43:00,
2013-04-10 18:58:00,40.5,26.0,30.10,NNE,32,0.0,-999.0,57,-99.99,,,0.00,weatherlink.com 1.10,2013-04-10 22:58:00,
2013-04-10 19:13:00,40.1,25.0,30.09,NE,37,2.0,-999.0,55,-99.99,,,0.00,weatherlink.com 1.10,2013-04-10 23:13:00,
2013-04-10 19:28:00,40.0,23.0,30.09,NE,38,6.0,-999.0,52,-99.99,,,0.00,weatherlink.com 1.10,2013-04-10 23:28:00,
2013-04-10 19:43:00,39.1,23.0,30.08,NE,40,6.0,-999.0,53,-99.99,,,0.00,weatherlink.com 1.10,2013-04-10 23:43:00,
2013-04-10 19:58:00,38.3,23.0,30.09,NE,41,5.0,-999.0,54,-99.99,,,0.00,weatherlink.com 1.10,2013-04-10 23:58:00,
2013-04-10 20:13:00,-999.0,-99.9,30.09,North,-999,-999.0,-999.0,-999,-99.99,,,0.00,weatherlink.com 1.10,2013-04-11 00:13:00,
2013-04-10 20:28:00,-999.0,-99.9,30.10,North,-999,-999.0,-999.0,-999,-99.99,,,0.00,weatherlink.com 1.10,2013-04-11 00:28:00,
2013-04-10 20:43:00,-999.0,-99.9,30.09,North,-999,-999.0,-999.0,-999,-99.99,,,0.00,weatherlink.com 1.10,2013-04-11 00:43:00,
2013-04-10 20:58:00,-999.0,-99.9,30.08,North,-999,-999.0,-999.0,-999,-99.99,,,0.00,weatherlink.com 1.10,2013-04-11 00:58:00,
2013-04-10 21:13:00,-999.0,-99.9,30.09,North,-999,-999.0,-999.0,-999,-99.99,,,0.00,weatherlink.com 1.10,2013-04-11 01:13:00,
2013-04-10 21:28:00,-999.0,-99.9,30.07,North,-999,-999.0,-999.0,-999,-99.99,,,0.00,weatherlink.com 1.10,2013-04-11 01:28:00,
2013-04-10 21:43:00,-999.0,-99.9,30.08,North,-999,-999.0,-999.0,-999,-99.99,,,0.00,weatherlink.com 1.10,2013-04-11 01:43:00,
2013-04-10 21:58:00,-999.0,-99.9,30.07,North,-999,-999.0,-999.0,-999,-99.99,,,0.00,weatherlink.com 1.10,2013-04-11 01:58:00,
2013-04-10 22:13:00,-999.0,-99.9,30.07,North,-999,-999.0,-999.0,-999,-99.99,,,0.00,weatherlink.com 1.10,2013-04-11 02:13:00,
2013-04-10 22:29:00,-999.0,-99.9,30.06,North,-999,-999.0,-999.0,-999,-99.99,,,0.00,weatherlink.com 1.10,2013-04-11 02:29:00,
2013-04-10 22:44:00,-999.0,-99.9,30.07,North,-999,-999.0,-999.0,-999,-99.99,,,0.00,weatherlink.com 1.10,2013-04-11 02:44:00,
2013-04-10 22:59:00,-999.0,-99.9,30.11,North,-999,-999.0,-999.0,-999,-99.99,,,0.00,weatherlink.com 1.10,2013-04-11 02:59:00,
2013-04-10 23:14:00,-999.0,-99.9,30.11,North,-999,-999.0,-999.0,-999,-99.99,,,0.00,weatherlink.com 1.10,2013-04-11 03:14:00,
2013-04-10 23:44:00,-999.0,-99.9,30.12,North,-999,-999.0,-999.0,-999,-99.99,,,0.00,weatherlink.com 1.10,2013-04-11 03:44:00,
2013-04-10 23:59:00,-999.0,-99.9,30.12,North,-999,-999.0,-999.0,-999,-99.99,,,0.00,weatherlink.com 1.10,2013-04-11 03:59:00,